sensor_id;sensor_type;location;lat;lon;timestamp;pressure;altitude;pressure_sealevel;temperature;humidity
46127;BME280;31859;55.030;-1.550;2022-07-23T00:01:32;100985.27;;;11.97;100.00
46127;BME280;31859;55.030;-1.550;2022-07-23T00:04:00;100982.32;;;12.04;100.00
46127;BME280;31859;55.030;-1.550;2022-07-23T00:06:27;100978.05;;;11.48;100.00
46127;BME280;31859;55.030;-1.550;2022-07-23T00:08:54;100982.05;;;12.24;100.00
46127;BME280;31859;55.030;-1.550;2022-07-23T00:11:21;100982.07;;;12.24;100.00
46127;BME280;31859;55.030;-1.550;2022-07-23T00:13:48;100976.89;;;12.04;100.00
46127;BME280;31859;55.030;-1.550;2022-07-23T00:16:16;100975.23;;;12.23;100.00
46127;BME280;31859;55.030;-1.550;2022-07-23T00:18:43;100972.75;;;12.59;100.00
46127;BME280;31859;55.030;-1.550;2022-07-23T00:21:10;100972.72;;;13.28;100.00
46127;BME280;31859;55.030;-1.550;2022-07-23T00:23:37;100972.80;;;13.40;100.00
46127;BME280;31859;55.030;-1.550;2022-07-23T00:26:04;100971.15;;;13.07;100.00
46127;BME280;31859;55.030;-1.550;2022-07-23T00:28:31;100968.22;;;12.44;100.00
46127;BME280;31859;55.030;-1.550;2022-07-23T00:30:58;100970.19;;;13.10;100.00
46127;BME280;31859;55.030;-1.550;2022-07-23T00:33:25;100967.47;;;12.78;100.00
46127;BME280;31859;55.030;-1.550;2022-07-23T00:35:52;100966.13;;;13.16;100.00
46127;BME280;31859;55.030;-1.550;2022-07-23T00:38:20;100964.06;;;12.71;100.00
46127;BME280;31859;55.030;-1.550;2022-07-23T00:40:47;100962.42;;;12.43;100.00
46127;BME280;31859;55.030;-1.550;2022-07-23T00:43:14;100957.87;;;12.45;100.00
46127;BME280;31859;55.030;-1.550;2022-07-23T00:45:41;100953.14;;;11.93;100.00
46127;BME280;31859;55.030;-1.550;2022-07-23T00:48:09;100951.48;;;11.66;100.00
46127;BME280;31859;55.030;-1.550;2022-07-23T00:50:36;100945.46;;;11.95;100.00
46127;BME280;31859;55.030;-1.550;2022-07-23T00:53:04;100946.44;;;11.56;100.00
46127;BME280;31859;55.030;-1.550;2022-07-23T00:55:32;100940.37;;;11.55;100.00
46127;BME280;31859;55.030;-1.550;2022-07-23T00:58:01;100939.86;;;11.94;100.00
46127;BME280;31859;55.030;-1.550;2022-07-23T01:00:29;100935.63;;;11.52;100.00
46127;BME280;31859;55.030;-1.550;2022-07-23T01:02:56;100934.91;;;11.74;100.00
46127;BME280;31859;55.030;-1.550;2022-07-23T01:05:23;100926.95;;;11.35;100.00
46127;BME280;31859;55.030;-1.550;2022-07-23T01:07:52;100927.44;;;11.97;100.00
46127;BME280;31859;55.030;-1.550;2022-07-23T01:10:19;100922.09;;;11.03;100.00
46127;BME280;31859;55.030;-1.550;2022-07-23T01:12:47;100922.24;;;11.53;100.00
46127;BME280;31859;55.030;-1.550;2022-07-23T01:15:14;100918.79;;;11.80;100.00
46127;BME280;31859;55.030;-1.550;2022-07-23T01:17:41;100918.20;;;12.14;100.00
46127;BME280;31859;55.030;-1.550;2022-07-23T01:20:09;100916.66;;;12.49;100.00
46127;BME280;31859;55.030;-1.550;2022-07-23T01:22:36;100919.90;;;11.85;100.00
46127;BME280;31859;55.030;-1.550;2022-07-23T01:25:03;100918.89;;;12.01;100.00
46127;BME280;31859;55.030;-1.550;2022-07-23T01:27:31;100919.01;;;12.51;100.00
46127;BME280;31859;55.030;-1.550;2022-07-23T01:30:00;100918.39;;;12.88;100.00
46127;BME280;31859;55.030;-1.550;2022-07-23T01:32:27;100919.56;;;12.47;100.00
46127;BME280;31859;55.030;-1.550;2022-07-23T01:34:54;100917.65;;;12.40;100.00
46127;BME280;31859;55.030;-1.550;2022-07-23T01:37:21;100918.35;;;12.76;100.00
46127;BME280;31859;55.030;-1.550;2022-07-23T01:39:48;100911.51;;;12.01;100.00
46127;BME280;31859;55.030;-1.550;2022-07-23T01:42:16;100904.37;;;11.69;100.00
46127;BME280;31859;55.030;-1.550;2022-07-23T01:44:48;100900.18;;;11.48;100.00
46127;BME280;31859;55.030;-1.550;2022-07-23T01:47:15;100896.04;;;11.05;100.00
46127;BME280;31859;55.030;-1.550;2022-07-23T01:49:43;100889.39;;;11.24;100.00
46127;BME280;31859;55.030;-1.550;2022-07-23T01:52:09;100886.24;;;11.06;100.00
46127;BME280;31859;55.030;-1.550;2022-07-23T01:54:38;100881.04;;;10.70;100.00
46127;BME280;31859;55.030;-1.550;2022-07-23T01:57:06;100872.71;;;10.97;100.00
46127;BME280;31859;55.030;-1.550;2022-07-23T01:59:33;100872.64;;;11.09;100.00
46127;BME280;31859;55.030;-1.550;2022-07-23T02:02:00;100873.98;;;11.16;100.00
46127;BME280;31859;55.030;-1.550;2022-07-23T02:04:28;100875.13;;;11.77;100.00
46127;BME280;31859;55.030;-1.550;2022-07-23T02:06:55;100876.44;;;11.77;100.00
46127;BME280;31859;55.030;-1.550;2022-07-23T02:09:23;100874.45;;;11.74;100.00
46127;BME280;31859;55.030;-1.550;2022-07-23T02:11:50;100868.87;;;11.16;100.00
46127;BME280;31859;55.030;-1.550;2022-07-23T02:14:18;100864.13;;;11.17;100.00
46127;BME280;31859;55.030;-1.550;2022-07-23T02:16:45;100862.66;;;11.08;100.00
46127;BME280;31859;55.030;-1.550;2022-07-23T02:19:12;100863.71;;;11.18;100.00
46127;BME280;31859;55.030;-1.550;2022-07-23T02:21:39;100862.87;;;11.28;100.00
46127;BME280;31859;55.030;-1.550;2022-07-23T02:24:07;100859.26;;;11.00;100.00
46127;BME280;31859;55.030;-1.550;2022-07-23T02:26:34;100856.65;;;10.58;100.00
46127;BME280;31859;55.030;-1.550;2022-07-23T02:29:02;100851.62;;;10.54;100.00
46127;BME280;31859;55.030;-1.550;2022-07-23T02:31:29;100852.13;;;10.51;100.00
46127;BME280;31859;55.030;-1.550;2022-07-23T02:33:57;100852.02;;;11.10;100.00
46127;BME280;31859;55.030;-1.550;2022-07-23T02:36:24;100856.69;;;11.22;100.00
46127;BME280;31859;55.030;-1.550;2022-07-23T02:38:51;100859.98;;;11.19;100.00
46127;BME280;31859;55.030;-1.550;2022-07-23T02:41:18;100861.97;;;11.57;100.00
46127;BME280;31859;55.030;-1.550;2022-07-23T02:43:45;100862.67;;;11.29;100.00
46127;BME280;31859;55.030;-1.550;2022-07-23T02:46:13;100860.85;;;10.41;100.00
46127;BME280;31859;55.030;-1.550;2022-07-23T02:48:39;100860.17;;;10.50;100.00
46127;BME280;31859;55.030;-1.550;2022-07-23T02:51:07;100855.07;;;10.57;100.00
46127;BME280;31859;55.030;-1.550;2022-07-23T02:53:34;100848.95;;;10.38;100.00
46127;BME280;31859;55.030;-1.550;2022-07-23T02:56:01;100844.44;;;10.85;100.00
46127;BME280;31859;55.030;-1.550;2022-07-23T02:58:28;100842.77;;;10.57;100.00
46127;BME280;31859;55.030;-1.550;2022-07-23T03:00:55;100840.35;;;10.34;100.00
46127;BME280;31859;55.030;-1.550;2022-07-23T03:03:22;100841.09;;;10.39;100.00
46127;BME280;31859;55.030;-1.550;2022-07-23T03:05:49;100839.37;;;10.33;100.00
46127;BME280;31859;55.030;-1.550;2022-07-23T03:08:17;100834.11;;;10.33;100.00
46127;BME280;31859;55.030;-1.550;2022-07-23T03:10:44;100838.08;;;10.10;100.00
46127;BME280;31859;55.030;-1.550;2022-07-23T03:13:11;100835.20;;;10.28;100.00
46127;BME280;31859;55.030;-1.550;2022-07-23T03:15:38;100829.72;;;10.14;100.00
46127;BME280;31859;55.030;-1.550;2022-07-23T03:18:06;100828.10;;;10.30;100.00
46127;BME280;31859;55.030;-1.550;2022-07-23T03:20:33;100827.86;;;10.04;100.00
46127;BME280;31859;55.030;-1.550;2022-07-23T03:23:00;100827.32;;;10.21;100.00
46127;BME280;31859;55.030;-1.550;2022-07-23T03:25:28;100827.03;;;10.32;100.00
46127;BME280;31859;55.030;-1.550;2022-07-23T03:27:55;100825.72;;;10.30;100.00
46127;BME280;31859;55.030;-1.550;2022-07-23T03:30:22;100824.89;;;10.13;100.00
46127;BME280;31859;55.030;-1.550;2022-07-23T03:32:50;100817.67;;;10.24;100.00
46127;BME280;31859;55.030;-1.550;2022-07-23T03:35:17;100816.25;;;10.15;100.00
46127;BME280;31859;55.030;-1.550;2022-07-23T03:37:44;100821.28;;;10.19;100.00
46127;BME280;31859;55.030;-1.550;2022-07-23T03:40:12;100822.17;;;10.61;100.00
46127;BME280;31859;55.030;-1.550;2022-07-23T03:42:39;100823.17;;;10.36;100.00
46127;BME280;31859;55.030;-1.550;2022-07-23T03:45:06;100814.15;;;10.86;100.00
46127;BME280;31859;55.030;-1.550;2022-07-23T03:47:34;100810.25;;;10.82;100.00
46127;BME280;31859;55.030;-1.550;2022-07-23T03:50:01;100812.00;;;10.39;100.00
46127;BME280;31859;55.030;-1.550;2022-07-23T03:52:28;100809.07;;;10.65;100.00
46127;BME280;31859;55.030;-1.550;2022-07-23T03:54:54;100814.55;;;10.56;100.00
46127;BME280;31859;55.030;-1.550;2022-07-23T03:57:22;100811.12;;;10.86;100.00
46127;BME280;31859;55.030;-1.550;2022-07-23T03:59:48;100812.84;;;11.04;100.00
46127;BME280;31859;55.030;-1.550;2022-07-23T04:02:15;100812.69;;;10.33;100.00
46127;BME280;31859;55.030;-1.550;2022-07-23T04:04:42;100810.71;;;10.81;100.00
46127;BME280;31859;55.030;-1.550;2022-07-23T04:07:09;100808.97;;;10.58;100.00
46127;BME280;31859;55.030;-1.550;2022-07-23T04:09:37;100810.88;;;10.62;100.00
46127;BME280;31859;55.030;-1.550;2022-07-23T04:12:05;100808.72;;;10.78;100.00
46127;BME280;31859;55.030;-1.550;2022-07-23T04:14:32;100807.00;;;11.65;100.00
46127;BME280;31859;55.030;-1.550;2022-07-23T04:17:00;100804.91;;;11.27;100.00
46127;BME280;31859;55.030;-1.550;2022-07-23T04:19:28;100799.49;;;10.95;100.00
46127;BME280;31859;55.030;-1.550;2022-07-23T04:21:55;100798.59;;;10.53;100.00
46127;BME280;31859;55.030;-1.550;2022-07-23T04:24:22;100796.53;;;10.93;100.00
46127;BME280;31859;55.030;-1.550;2022-07-23T04:26:49;100799.08;;;11.32;100.00
46127;BME280;31859;55.030;-1.550;2022-07-23T04:29:16;100800.61;;;11.02;100.00
46127;BME280;31859;55.030;-1.550;2022-07-23T04:31:43;100797.31;;;10.83;100.00
46127;BME280;31859;55.030;-1.550;2022-07-23T04:34:10;100796.56;;;11.22;100.00
46127;BME280;31859;55.030;-1.550;2022-07-23T04:36:38;100801.23;;;10.88;100.00
46127;BME280;31859;55.030;-1.550;2022-07-23T04:39:05;100799.18;;;11.36;100.00
46127;BME280;31859;55.030;-1.550;2022-07-23T04:41:32;100797.35;;;11.70;100.00
46127;BME280;31859;55.030;-1.550;2022-07-23T04:43:59;100795.28;;;11.81;100.00
46127;BME280;31859;55.030;-1.550;2022-07-23T04:46:27;100790.59;;;10.77;100.00
46127;BME280;31859;55.030;-1.550;2022-07-23T04:48:55;100786.50;;;10.45;100.00
46127;BME280;31859;55.030;-1.550;2022-07-23T04:51:22;100783.90;;;10.68;100.00
46127;BME280;31859;55.030;-1.550;2022-07-23T04:53:49;100785.55;;;9.78;100.00
46127;BME280;31859;55.030;-1.550;2022-07-23T04:56:16;100777.05;;;9.68;100.00
46127;BME280;31859;55.030;-1.550;2022-07-23T04:58:43;100777.86;;;9.81;100.00
46127;BME280;31859;55.030;-1.550;2022-07-23T05:01:10;100770.71;;;10.49;100.00
46127;BME280;31859;55.030;-1.550;2022-07-23T05:03:37;100768.81;;;10.34;100.00
46127;BME280;31859;55.030;-1.550;2022-07-23T05:06:04;100762.06;;;9.76;100.00
46127;BME280;31859;55.030;-1.550;2022-07-23T05:08:32;100759.06;;;10.12;100.00
46127;BME280;31859;55.030;-1.550;2022-07-23T05:10:59;100754.62;;;10.30;100.00
46127;BME280;31859;55.030;-1.550;2022-07-23T05:13:26;100748.59;;;10.43;100.00
46127;BME280;31859;55.030;-1.550;2022-07-23T05:15:53;100749.97;;;10.44;100.00
46127;BME280;31859;55.030;-1.550;2022-07-23T05:18:20;100753.65;;;10.48;100.00
46127;BME280;31859;55.030;-1.550;2022-07-23T05:20:48;100755.49;;;10.74;100.00
46127;BME280;31859;55.030;-1.550;2022-07-23T05:23:15;100757.52;;;10.81;100.00
46127;BME280;31859;55.030;-1.550;2022-07-23T05:25:43;100768.64;;;11.22;100.00
46127;BME280;31859;55.030;-1.550;2022-07-23T05:28:10;100776.95;;;11.31;100.00
46127;BME280;31859;55.030;-1.550;2022-07-23T05:30:38;100778.63;;;11.42;100.00
46127;BME280;31859;55.030;-1.550;2022-07-23T05:33:05;100773.51;;;11.64;100.00
46127;BME280;31859;55.030;-1.550;2022-07-23T05:35:32;100770.74;;;11.94;100.00
46127;BME280;31859;55.030;-1.550;2022-07-23T05:37:59;100768.38;;;11.60;100.00
46127;BME280;31859;55.030;-1.550;2022-07-23T05:40:27;100763.92;;;11.85;100.00
46127;BME280;31859;55.030;-1.550;2022-07-23T05:42:54;100756.57;;;11.69;100.00
46127;BME280;31859;55.030;-1.550;2022-07-23T05:45:21;100758.94;;;11.37;100.00
46127;BME280;31859;55.030;-1.550;2022-07-23T05:47:49;100758.16;;;11.51;100.00
46127;BME280;31859;55.030;-1.550;2022-07-23T05:50:17;100759.68;;;11.34;100.00
46127;BME280;31859;55.030;-1.550;2022-07-23T05:52:44;100753.12;;;11.60;100.00
46127;BME280;31859;55.030;-1.550;2022-07-23T05:55:11;100753.13;;;11.76;100.00
46127;BME280;31859;55.030;-1.550;2022-07-23T05:57:39;100748.23;;;11.79;100.00
46127;BME280;31859;55.030;-1.550;2022-07-23T06:00:08;100747.52;;;11.92;100.00
46127;BME280;31859;55.030;-1.550;2022-07-23T06:02:37;100748.80;;;11.52;100.00
46127;BME280;31859;55.030;-1.550;2022-07-23T06:05:06;100753.69;;;11.80;100.00
46127;BME280;31859;55.030;-1.550;2022-07-23T06:07:34;100759.63;;;11.73;100.00
46127;BME280;31859;55.030;-1.550;2022-07-23T06:10:03;100767.60;;;11.84;100.00
46127;BME280;31859;55.030;-1.550;2022-07-23T06:12:31;100772.21;;;12.08;100.00
46127;BME280;31859;55.030;-1.550;2022-07-23T06:14:58;100767.20;;;12.18;100.00
46127;BME280;31859;55.030;-1.550;2022-07-23T06:17:25;100759.84;;;11.74;100.00
46127;BME280;31859;55.030;-1.550;2022-07-23T06:19:53;100762.00;;;11.03;100.00
46127;BME280;31859;55.030;-1.550;2022-07-23T06:22:20;100759.47;;;12.15;100.00
46127;BME280;31859;55.030;-1.550;2022-07-23T06:24:49;100753.87;;;11.83;100.00
46127;BME280;31859;55.030;-1.550;2022-07-23T06:27:16;100750.57;;;12.40;100.00
46127;BME280;31859;55.030;-1.550;2022-07-23T06:29:43;100752.36;;;12.33;100.00
46127;BME280;31859;55.030;-1.550;2022-07-23T06:32:10;100747.27;;;12.02;100.00
46127;BME280;31859;55.030;-1.550;2022-07-23T06:34:37;100744.29;;;12.29;100.00
46127;BME280;31859;55.030;-1.550;2022-07-23T06:37:04;100744.17;;;12.52;100.00
46127;BME280;31859;55.030;-1.550;2022-07-23T06:39:31;100748.65;;;12.16;100.00
46127;BME280;31859;55.030;-1.550;2022-07-23T06:41:59;100752.58;;;12.22;100.00
46127;BME280;31859;55.030;-1.550;2022-07-23T06:44:27;100753.73;;;12.83;100.00
46127;BME280;31859;55.030;-1.550;2022-07-23T06:46:54;100744.30;;;12.77;100.00
46127;BME280;31859;55.030;-1.550;2022-07-23T06:49:21;100740.61;;;12.75;100.00
46127;BME280;31859;55.030;-1.550;2022-07-23T06:51:49;100737.68;;;13.10;100.00
46127;BME280;31859;55.030;-1.550;2022-07-23T06:54:16;100736.14;;;12.53;100.00
46127;BME280;31859;55.030;-1.550;2022-07-23T06:56:43;100737.82;;;13.15;100.00
46127;BME280;31859;55.030;-1.550;2022-07-23T06:59:11;100739.42;;;13.58;100.00
46127;BME280;31859;55.030;-1.550;2022-07-23T07:01:38;100745.48;;;12.90;100.00
46127;BME280;31859;55.030;-1.550;2022-07-23T07:04:05;100742.93;;;13.24;100.00
46127;BME280;31859;55.030;-1.550;2022-07-23T07:06:32;100741.34;;;13.26;100.00
46127;BME280;31859;55.030;-1.550;2022-07-23T07:08:59;100748.22;;;13.47;100.00
46127;BME280;31859;55.030;-1.550;2022-07-23T07:11:26;100747.21;;;13.51;100.00
46127;BME280;31859;55.030;-1.550;2022-07-23T07:13:53;100753.59;;;13.25;100.00
46127;BME280;31859;55.030;-1.550;2022-07-23T07:16:21;100755.04;;;13.23;100.00
46127;BME280;31859;55.030;-1.550;2022-07-23T07:18:48;100759.03;;;14.40;100.00
46127;BME280;31859;55.030;-1.550;2022-07-23T07:21:15;100759.40;;;14.44;100.00
46127;BME280;31859;55.030;-1.550;2022-07-23T07:23:42;100755.26;;;14.05;100.00
46127;BME280;31859;55.030;-1.550;2022-07-23T07:26:09;100753.37;;;14.30;100.00
46127;BME280;31859;55.030;-1.550;2022-07-23T07:28:36;100756.46;;;14.95;100.00
46127;BME280;31859;55.030;-1.550;2022-07-23T07:31:04;100758.23;;;14.67;100.00
46127;BME280;31859;55.030;-1.550;2022-07-23T07:33:31;100757.61;;;15.22;100.00
46127;BME280;31859;55.030;-1.550;2022-07-23T07:35:59;100760.82;;;15.08;100.00
46127;BME280;31859;55.030;-1.550;2022-07-23T07:38:26;100763.00;;;15.47;100.00
46127;BME280;31859;55.030;-1.550;2022-07-23T07:40:53;100760.91;;;15.34;100.00
46127;BME280;31859;55.030;-1.550;2022-07-23T07:43:21;100760.35;;;14.71;100.00
46127;BME280;31859;55.030;-1.550;2022-07-23T07:45:48;100760.13;;;14.95;100.00
46127;BME280;31859;55.030;-1.550;2022-07-23T07:48:15;100756.00;;;15.35;100.00
46127;BME280;31859;55.030;-1.550;2022-07-23T07:50:43;100749.35;;;15.21;100.00
46127;BME280;31859;55.030;-1.550;2022-07-23T07:53:10;100751.77;;;16.04;100.00
46127;BME280;31859;55.030;-1.550;2022-07-23T07:55:38;100749.51;;;15.37;100.00
46127;BME280;31859;55.030;-1.550;2022-07-23T07:58:05;100751.33;;;15.58;100.00
46127;BME280;31859;55.030;-1.550;2022-07-23T08:00:32;100757.40;;;16.30;100.00
46127;BME280;31859;55.030;-1.550;2022-07-23T08:02:59;100754.86;;;16.10;100.00
46127;BME280;31859;55.030;-1.550;2022-07-23T08:05:28;100762.43;;;16.41;100.00
46127;BME280;31859;55.030;-1.550;2022-07-23T08:07:57;100762.97;;;15.53;100.00
46127;BME280;31859;55.030;-1.550;2022-07-23T08:10:25;100758.33;;;16.52;100.00
46127;BME280;31859;55.030;-1.550;2022-07-23T08:12:54;100756.20;;;16.47;100.00
46127;BME280;31859;55.030;-1.550;2022-07-23T08:15:23;100752.66;;;17.10;100.00
46127;BME280;31859;55.030;-1.550;2022-07-23T08:17:50;100761.80;;;17.22;100.00
46127;BME280;31859;55.030;-1.550;2022-07-23T08:20:20;100766.58;;;17.40;100.00
46127;BME280;31859;55.030;-1.550;2022-07-23T08:22:49;100765.19;;;16.49;100.00
46127;BME280;31859;55.030;-1.550;2022-07-23T08:25:20;100764.60;;;16.18;100.00
46127;BME280;31859;55.030;-1.550;2022-07-23T08:27:48;100759.85;;;16.66;100.00
46127;BME280;31859;55.030;-1.550;2022-07-23T08:30:16;100758.05;;;16.83;100.00
46127;BME280;31859;55.030;-1.550;2022-07-23T08:32:53;100757.28;;;16.85;100.00
46127;BME280;31859;55.030;-1.550;2022-07-23T08:35:23;100757.48;;;17.09;100.00
46127;BME280;31859;55.030;-1.550;2022-07-23T08:37:51;100766.79;;;16.63;100.00
46127;BME280;31859;55.030;-1.550;2022-07-23T08:40:19;100760.96;;;16.72;100.00
46127;BME280;31859;55.030;-1.550;2022-07-23T08:42:49;100755.11;;;16.60;100.00
46127;BME280;31859;55.030;-1.550;2022-07-23T08:45:18;100749.35;;;16.90;100.00
46127;BME280;31859;55.030;-1.550;2022-07-23T08:47:49;100749.51;;;17.58;100.00
46127;BME280;31859;55.030;-1.550;2022-07-23T08:50:16;100752.70;;;18.00;100.00
46127;BME280;31859;55.030;-1.550;2022-07-23T08:52:44;100751.73;;;18.88;100.00
46127;BME280;31859;55.030;-1.550;2022-07-23T08:55:11;100748.75;;;18.62;100.00
46127;BME280;31859;55.030;-1.550;2022-07-23T08:57:38;100750.17;;;19.38;100.00
46127;BME280;31859;55.030;-1.550;2022-07-23T09:00:07;100752.59;;;18.61;100.00
46127;BME280;31859;55.030;-1.550;2022-07-23T09:02:40;100751.32;;;18.69;100.00
46127;BME280;31859;55.030;-1.550;2022-07-23T09:05:09;100749.50;;;18.87;100.00
46127;BME280;31859;55.030;-1.550;2022-07-23T09:07:36;100748.82;;;19.57;100.00
46127;BME280;31859;55.030;-1.550;2022-07-23T09:10:08;100746.74;;;19.29;100.00
46127;BME280;31859;55.030;-1.550;2022-07-23T09:12:36;100749.51;;;19.87;100.00
46127;BME280;31859;55.030;-1.550;2022-07-23T09:15:06;100744.23;;;20.11;100.00
46127;BME280;31859;55.030;-1.550;2022-07-23T09:17:39;100747.84;;;19.99;100.00
46127;BME280;31859;55.030;-1.550;2022-07-23T09:20:09;100748.15;;;19.34;100.00
46127;BME280;31859;55.030;-1.550;2022-07-23T09:22:38;100746.80;;;20.29;100.00
46127;BME280;31859;55.030;-1.550;2022-07-23T09:25:10;100742.96;;;20.31;100.00
46127;BME280;31859;55.030;-1.550;2022-07-23T09:25:13;100744.06;;;20.47;100.00
46127;BME280;31859;55.030;-1.550;2022-07-23T09:27:52;100744.78;;;20.88;100.00
46127;BME280;31859;55.030;-1.550;2022-07-23T09:30:20;100748.10;;;20.88;100.00
46127;BME280;31859;55.030;-1.550;2022-07-23T09:33:06;100741.89;;;20.40;100.00
46127;BME280;31859;55.030;-1.550;2022-07-23T09:35:51;100734.82;;;21.43;100.00
46127;BME280;31859;55.030;-1.550;2022-07-23T09:38:20;100736.02;;;22.02;100.00
46127;BME280;31859;55.030;-1.550;2022-07-23T09:41:04;100733.09;;;22.65;100.00
46127;BME280;31859;55.030;-1.550;2022-07-23T09:43:32;100730.01;;;22.26;100.00
46127;BME280;31859;55.030;-1.550;2022-07-23T09:46:17;100726.06;;;21.35;100.00
46127;BME280;31859;55.030;-1.550;2022-07-23T09:48:44;100719.90;;;22.56;100.00
46127;BME280;31859;55.030;-1.550;2022-07-23T09:51:12;100721.42;;;22.35;100.00
46127;BME280;31859;55.030;-1.550;2022-07-23T09:53:39;100721.41;;;23.11;100.00
46127;BME280;31859;55.030;-1.550;2022-07-23T09:56:07;100717.82;;;21.15;100.00
46127;BME280;31859;55.030;-1.550;2022-07-23T09:58:40;100718.65;;;21.37;100.00
46127;BME280;31859;55.030;-1.550;2022-07-23T10:01:07;100712.26;;;22.46;100.00
46127;BME280;31859;55.030;-1.550;2022-07-23T10:03:35;100706.92;;;22.47;100.00
46127;BME280;31859;55.030;-1.550;2022-07-23T10:06:03;100709.74;;;21.32;100.00
46127;BME280;31859;55.030;-1.550;2022-07-23T10:08:32;100707.21;;;20.95;100.00
46127;BME280;31859;55.030;-1.550;2022-07-23T10:11:01;100710.74;;;20.26;100.00
46127;BME280;31859;55.030;-1.550;2022-07-23T10:13:29;100709.92;;;19.68;100.00
46127;BME280;31859;55.030;-1.550;2022-07-23T10:15:57;100707.95;;;19.17;100.00
46127;BME280;31859;55.030;-1.550;2022-07-23T10:18:25;100705.26;;;19.14;100.00
46127;BME280;31859;55.030;-1.550;2022-07-23T10:20:53;100707.09;;;19.57;100.00
46127;BME280;31859;55.030;-1.550;2022-07-23T10:23:27;100713.11;;;21.12;100.00
46127;BME280;31859;55.030;-1.550;2022-07-23T10:26:03;100710.29;;;21.17;100.00
46127;BME280;31859;55.030;-1.550;2022-07-23T10:28:48;100707.87;;;21.20;100.00
46127;BME280;31859;55.030;-1.550;2022-07-23T10:31:34;100703.86;;;21.86;100.00
46127;BME280;31859;55.030;-1.550;2022-07-23T10:34:10;100700.35;;;22.04;100.00
46127;BME280;31859;55.030;-1.550;2022-07-23T10:36:42;100700.24;;;21.16;100.00
46127;BME280;31859;55.030;-1.550;2022-07-23T10:39:17;100695.61;;;20.89;100.00
46127;BME280;31859;55.030;-1.550;2022-07-23T10:41:47;100692.98;;;22.61;100.00
46127;BME280;31859;55.030;-1.550;2022-07-23T10:44:16;100694.74;;;21.79;100.00
46127;BME280;31859;55.030;-1.550;2022-07-23T10:47:01;100686.82;;;21.75;100.00
46127;BME280;31859;55.030;-1.550;2022-07-23T10:49:31;100685.13;;;21.89;100.00
46127;BME280;31859;55.030;-1.550;2022-07-23T10:52:31;100683.56;;;21.08;100.00
46127;BME280;31859;55.030;-1.550;2022-07-23T10:55:39;100675.96;;;21.28;100.00
46127;BME280;31859;55.030;-1.550;2022-07-23T10:58:07;100676.18;;;20.30;100.00
46127;BME280;31859;55.030;-1.550;2022-07-23T11:00:35;100675.34;;;20.11;100.00
46127;BME280;31859;55.030;-1.550;2022-07-23T11:03:05;100677.82;;;20.47;100.00
46127;BME280;31859;55.030;-1.550;2022-07-23T11:05:54;100683.32;;;20.04;100.00
46127;BME280;31859;55.030;-1.550;2022-07-23T11:08:21;100675.12;;;19.61;100.00
46127;BME280;31859;55.030;-1.550;2022-07-23T11:10:51;100674.41;;;18.76;100.00
46127;BME280;31859;55.030;-1.550;2022-07-23T11:13:28;100680.51;;;17.97;100.00
46127;BME280;31859;55.030;-1.550;2022-07-23T11:16:16;100678.78;;;17.94;100.00
46127;BME280;31859;55.030;-1.550;2022-07-23T11:19:17;100677.12;;;17.51;100.00
46127;BME280;31859;55.030;-1.550;2022-07-23T11:21:49;100675.39;;;17.54;100.00
46127;BME280;31859;55.030;-1.550;2022-07-23T11:24:20;100676.91;;;17.28;100.00
46127;BME280;31859;55.030;-1.550;2022-07-23T11:26:52;100674.81;;;17.05;100.00
46127;BME280;31859;55.030;-1.550;2022-07-23T11:29:39;100675.78;;;17.24;100.00
46127;BME280;31859;55.030;-1.550;2022-07-23T11:32:08;100671.20;;;17.78;100.00
46127;BME280;31859;55.030;-1.550;2022-07-23T11:34:46;100669.70;;;19.05;100.00
46127;BME280;31859;55.030;-1.550;2022-07-23T11:37:31;100664.78;;;18.98;100.00
46127;BME280;31859;55.030;-1.550;2022-07-23T11:40:00;100654.24;;;19.04;100.00
46127;BME280;31859;55.030;-1.550;2022-07-23T11:42:28;100654.43;;;19.25;100.00
46127;BME280;31859;55.030;-1.550;2022-07-23T11:44:55;100653.47;;;19.62;100.00
46127;BME280;31859;55.030;-1.550;2022-07-23T11:47:24;100655.49;;;19.53;100.00
46127;BME280;31859;55.030;-1.550;2022-07-23T11:49:54;100658.38;;;19.01;100.00
46127;BME280;31859;55.030;-1.550;2022-07-23T11:52:21;100655.92;;;18.15;100.00
46127;BME280;31859;55.030;-1.550;2022-07-23T11:54:51;100657.79;;;18.76;100.00
46127;BME280;31859;55.030;-1.550;2022-07-23T11:57:21;100656.78;;;19.46;100.00
46127;BME280;31859;55.030;-1.550;2022-07-23T11:59:53;100650.19;;;18.54;100.00
46127;BME280;31859;55.030;-1.550;2022-07-23T12:02:21;100654.56;;;18.75;100.00
46127;BME280;31859;55.030;-1.550;2022-07-23T12:04:51;100657.67;;;17.88;100.00
46127;BME280;31859;55.030;-1.550;2022-07-23T12:07:35;100654.74;;;17.71;100.00
46127;BME280;31859;55.030;-1.550;2022-07-23T12:10:10;100656.86;;;17.43;100.00
46127;BME280;31859;55.030;-1.550;2022-07-23T12:12:38;100655.84;;;17.65;100.00
46127;BME280;31859;55.030;-1.550;2022-07-23T12:15:07;100648.99;;;16.49;100.00
46127;BME280;31859;55.030;-1.550;2022-07-23T12:17:36;100651.04;;;17.73;100.00
46127;BME280;31859;55.030;-1.550;2022-07-23T12:20:06;100653.61;;;17.55;100.00
46127;BME280;31859;55.030;-1.550;2022-07-23T12:22:35;100654.06;;;17.33;100.00
46127;BME280;31859;55.030;-1.550;2022-07-23T12:25:06;100648.69;;;17.60;100.00
46127;BME280;31859;55.030;-1.550;2022-07-23T12:27:34;100645.68;;;18.07;100.00
46127;BME280;31859;55.030;-1.550;2022-07-23T12:30:20;100645.28;;;18.53;100.00
46127;BME280;31859;55.030;-1.550;2022-07-23T12:32:48;100646.43;;;18.42;100.00
46127;BME280;31859;55.030;-1.550;2022-07-23T12:35:17;100641.09;;;19.09;100.00
46127;BME280;31859;55.030;-1.550;2022-07-23T12:37:46;100641.31;;;19.21;100.00